This is the latest recevied weather packets stored in our database for station/object WA9AFM-10. If no packets are shown the sender has not sent any weather packets the latest 10 day(s).
| Time | Temp. | Humidity | Pressure | Rain* | Wind** | Luminosity | Snow |
|---|---|---|---|---|---|---|---|
| 1777518602 | 12.78° C | 72% | 1013.1 hPa | 0 mm | - | - | - |
| 1777516802 | 12.78° C | 73% | 1013.1 hPa | 0 mm | - | - | - |
| 1777515002 | 13.89° C | 69% | 1012.8 hPa | 0 mm | - | - | - |
| 1777513201 | 15.56° C | 64% | 1012.2 hPa | 0 mm | - | - | - |
| 1777511402 | 16.67° C | 61% | 1011.5 hPa | 0 mm | - | - | - |
| 1777509601 | 17.22° C | 57% | 1011.4 hPa | 0 mm | - | - | - |
| 1777507801 | 18.33° C | 54% | 1011 hPa | 0 mm | - | - | - |
| 1777506002 | 18.89° C | 51% | 1011.1 hPa | 0 mm | - | - | - |
| 1777504202 | 19.44° C | 51% | 1010.9 hPa | 0 mm | - | - | - |
| 1777502401 | 20° C | 50% | 1010.8 hPa | 0 mm | - | - | - |
| 1777500601 | 20° C | 51% | 1010.8 hPa | 0 mm | - | - | - |
| 1777498802 | 20° C | 48% | 1011.2 hPa | 0 mm | - | - | - |
| 1777497002 | 20° C | 51% | 1011.3 hPa | 0 mm | - | - | - |
| 1777495201 | 18.89° C | 54% | 1012.1 hPa | 0 mm | - | - | - |
| 1777493401 | 19.44° C | 53% | 1012.3 hPa | 0 mm | - | - | - |
| 1777491602 | 19.44° C | 57% | 1012.4 hPa | 0 mm | - | - | - |
| 1777489802 | 19.44° C | 56% | 1012.9 hPa | 0 mm | - | - | - |
| 1777488001 | 18.33° C | 60% | 1013.4 hPa | 0 mm | - | - | - |
| 1777484401 | 16.67° C | 59% | 1014.2 hPa | 0 mm | - | - | - |
| 1777482601 | 16.11° C | 63% | 1014.6 hPa | 0 mm | - | - | - |
| 1777480802 | 15.56° C | 63% | 1014.9 hPa | 0 mm | - | - | - |
| 1777479002 | 15° C | 65% | 1014.9 hPa | 0 mm | - | - | - |
| 1777477201 | 13.89° C | 69% | 1014.6 hPa | 0 mm | - | - | - |
| 1777475401 | 12.78° C | 72% | 1014.7 hPa | 0 mm | - | - | - |
| 1777473602 | 12.22° C | 76% | 1014.9 hPa | 0 mm | - | - | - |
* Rain latest hour (hover to see other rain measurements)
** Current wind speed in m/s (hover to see current wind gust speed)